Time;durP1;ratioP1;P1;durP2;ratioP2;P2;SDS_P1;SDS_P2;PMS_P1;PMS_P2;Temp;Humidity;BMP_temperature;BMP_pressure;BME280_temperature;BME280_humidity;BME280_pressure;Samples;Min_cycle;Max_cycle;Signal;HPM_P1;HPM_P2
2023/01/19 00:01:29;;;;;;;34.80;14.52;;;;;;;1.14;90.39;99753.50;5094771;28;20072;-51
2023/01/19 00:03:55;;;;;;;31.05;13.75;;;;;;;1.12;90.54;99755.41;5095289;28;20556;-50
2023/01/19 00:06:22;;;;;;;33.65;14.68;;;;;;;1.02;91.33;99751.81;5095157;28;20063;-51
2023/01/19 00:08:49;;;;;;;33.72;14.98;;;;;;;1.01;91.37;99745.78;5094977;28;20404;-49
2023/01/19 00:11:16;;;;;;;34.78;15.77;;;;;;;1.04;91.42;99742.13;5095090;28;20044;-51
2023/01/19 00:13:48;;;;;;;32.28;14.13;;;;;;;1.02;91.57;99749.22;5094957;28;20394;-50
2023/01/19 00:16:17;;;;;;;;;;;;;;;1.00;91.30;99746.75;5095257;28;20439;-51
2023/01/19 00:18:44;;;;;;;33.13;13.65;;;;;;;1.06;91.48;99748.88;5095434;28;20396;-49
2023/01/19 00:21:13;;;;;;;33.72;15.43;;;;;;;1.05;91.20;99752.44;5095097;28;20131;-51
2023/01/19 00:23:41;;;;;;;37.22;15.45;;;;;;;1.02;91.51;99747.47;5094967;28;20032;-49
2023/01/19 00:26:09;;;;;;;39.22;15.05;;;;;;;1.03;91.76;99756.94;5095258;28;20512;-50
2023/01/19 00:28:36;;;;;;;36.60;14.25;;;;;;;1.12;91.18;99758.84;5092546;28;20512;-50
2023/01/19 00:31:02;;;;;;;34.47;14.20;;;;;;;1.00;91.98;99758.94;5078482;28;20048;-50
2023/01/19 00:33:29;;;;;;;39.75;15.85;;;;;;;1.05;91.09;99759.44;5094562;28;20044;-51
2023/01/19 00:35:55;;;;;;;33.25;15.32;;;;;;;1.06;90.61;99751.50;5094988;28;20126;-50
2023/01/19 00:38:22;;;;;;;34.45;14.98;;;;;;;1.02;91.24;99754.44;5094567;28;20048;-51
2023/01/19 00:40:49;;;;;;;38.50;15.25;;;;;;;0.94;91.31;99763.69;5094757;28;20048;-49
2023/01/19 00:43:15;;;;;;;31.98;11.55;;;;;;;0.98;91.08;99766.91;5094657;28;20044;-49
2023/01/19 00:45:44;;;;;;;41.47;15.35;;;;;;;0.89;91.95;99760.63;5094192;28;20048;-50
2023/01/19 00:48:11;;;;;;;31.92;15.38;;;;;;;0.89;91.78;99768.44;5094699;28;20052;-50
2023/01/19 00:50:37;;;;;;;28.30;13.60;;;;;;;0.90;91.80;99770.09;5094443;28;20097;-50
2023/01/19 00:53:04;;;;;;;36.78;15.60;;;;;;;0.88;91.77;99769.38;5094573;28;20432;-50
2023/01/19 00:55:32;;;;;;;31.98;15.10;;;;;;;0.91;91.94;99770.91;5094444;28;20051;-50
2023/01/19 00:57:58;;;;;;;40.78;16.33;;;;;;;0.83;92.04;99771.50;5094594;28;20044;-50
2023/01/19 01:00:25;;;;;;;33.20;13.95;;;;;;;0.76;92.35;99765.94;5093900;28;20102;-50
2023/01/19 01:02:53;;;;;;;35.15;14.60;;;;;;;0.81;92.40;99772.56;5094325;28;20489;-50
2023/01/19 01:05:21;;;;;;;36.10;14.70;;;;;;;0.82;92.18;99767.25;5093220;28;20040;-49
2023/01/19 01:07:48;;;;;;;35.92;15.45;;;;;;;0.78;92.70;99765.78;5093473;28;20048;-51
2023/01/19 01:10:20;;;;;;;33.30;15.02;;;;;;;0.80;92.27;99768.28;5093634;28;20044;-49
2023/01/19 01:12:47;;;;;;;35.75;14.98;;;;;;;0.84;92.89;99772.34;5093991;28;20405;-49
2023/01/19 01:15:15;;;;;;;38.33;15.80;;;;;;;0.81;92.65;99769.97;5093738;28;20086;-50
2023/01/19 01:17:46;;;;;;;39.10;14.90;;;;;;;0.79;92.58;99766.66;5094102;28;20046;-50
2023/01/19 01:20:16;;;;;;;32.28;14.93;;;;;;;0.80;92.87;99763.06;5094000;28;20052;-50
2023/01/19 01:22:46;;;;;;;36.63;15.05;;;;;;;0.70;93.03;99771.59;5094263;28;20062;-49
2023/01/19 01:25:15;;;;;;;40.22;15.98;;;;;;;0.74;92.99;99770.41;5093822;28;20097;-49
2023/01/19 01:27:42;;;;;;;36.35;15.50;;;;;;;0.76;92.56;99765.06;5093978;28;20040;-49
2023/01/19 01:30:12;;;;;;;40.17;15.88;;;;;;;0.76;93.15;99763.31;5093565;28;20068;-51
2023/01/19 01:32:39;;;;;;;39.10;16.05;;;;;;;0.76;93.18;99763.31;5094145;28;20047;-49
2023/01/19 01:35:07;;;;;;;36.85;16.42;;;;;;;0.80;93.14;99771.75;5093473;28;20044;-49
2023/01/19 01:37:36;;;;;;;39.17;16.42;;;;;;;0.85;92.70;99771.41;5093976;28;20505;-49
2023/01/19 01:40:04;;;;;;;31.98;14.90;;;;;;;0.87;93.35;99772.94;5094039;28;20044;-50
2023/01/19 01:42:32;;;;;;;41.78;15.70;;;;;;;1.01;92.09;99771.91;5093588;28;20394;-50
2023/01/19 01:45:04;;;;;;;25.65;11.45;;;;;;;1.10;91.38;99776.41;5093819;28;20075;-48
2023/01/19 01:47:43;;;;;;;28.02;10.88;;;;;;;0.98;91.57;99768.69;5093552;28;20052;-49
2023/01/19 01:50:15;;;;;;;36.55;13.80;;;;;;;1.06;90.95;99774.19;5093380;28;20508;-51
2023/01/19 01:52:45;;;;;;;;;;;;;;;1.09;91.84;99779.16;5094007;28;20493;-50
2023/01/19 01:55:13;;;;;;;28.10;11.57;;;;;;;0.98;92.00;99768.69;5093571;28;20373;-50
2023/01/19 01:57:45;;;;;;;33.97;14.23;;;;;;;0.93;92.40;99769.06;5093430;28;20044;-50
2023/01/19 02:00:13;;;;;;;36.08;14.40;;;;;;;1.04;92.19;99766.44;5093554;28;20059;-50
2023/01/19 02:02:54;;;;;;;37.00;15.65;;;;;;;1.06;92.06;99774.19;5093023;28;20101;-51
2023/01/19 02:05:27;;;;;;;33.33;14.85;;;;;;;1.22;91.49;99781.66;5093340;28;20043;-49
2023/01/19 02:13:50;;;;;;;36.35;14.55;;;;;;;1.02;91.80;99781.41;5093231;28;20040;-49
2023/01/19 02:16:16;;;;;;;36.55;14.98;;;;;;;1.03;91.54;99777.00;5092832;28;20565;-50
2023/01/19 02:18:44;;;;;;;36.42;15.07;;;;;;;1.11;91.78;99782.47;5093527;28;20050;-49
2023/01/19 02:24:07;;;;;;;37.33;15.38;;;;;;;1.04;91.97;99771.69;5111268;27;20372;-50
2023/01/19 02:26:38;;;;;;;35.65;14.77;;;;;;;0.99;92.05;99763.34;5111017;28;20093;-50
2023/01/19 02:29:08;;;;;;;34.13;15.50;;;;;;;1.04;91.61;99778.69;5111380;28;20051;-50
2023/01/19 02:31:37;;;;;;;34.47;14.53;;;;;;;0.98;92.20;99777.34;5097895;28;20047;-52
2023/01/19 02:34:08;;;;;;;38.50;14.20;;;;;;;1.05;91.83;99770.72;5110972;28;20096;-50
2023/01/19 02:36:41;;;;;;;34.72;15.30;;;;;;;0.95;92.37;99769.75;5111325;28;20097;-52
2023/01/19 02:39:10;;;;;;;35.63;12.95;;;;;;;0.87;92.49;99775.53;5110592;28;20402;-51
2023/01/19 02:41:43;;;;;;;32.28;13.77;;;;;;;0.98;92.16;99773.91;5110852;28;20048;-51
2023/01/19 02:44:11;;;;;;;29.70;13.95;;;;;;;0.85;92.88;99769.59;5110590;28;20131;-51
2023/01/19 02:46:39;;;;;;;30.35;12.77;;;;;;;1.09;91.44;99780.00;5110707;28;20043;-50
2023/01/19 02:49:06;;;;;;;29.65;14.23;;;;;;;0.88;92.19;99768.56;5110575;28;20066;-52
2023/01/19 02:51:33;;;;;;;35.42;13.07;;;;;;;0.89;92.31;99762.38;5110593;28;20089;-50
2023/01/19 02:54:26;;;;;;;30.67;13.20;;;;;;;0.88;92.45;99764.16;5110823;28;20366;-51
2023/01/19 02:57:24;;;;;;;26.30;12.35;;;;;;;0.95;91.84;99764.53;5110482;28;20048;-50
2023/01/19 03:00:08;;;;;;;32.58;12.82;;;;;;;0.84;92.66;99760.13;5110512;28;20048;-52
2023/01/19 03:03:15;;;;;;;31.15;11.90;;;;;;;0.82;92.55;99763.78;5110326;28;20044;-50
2023/01/19 03:06:05;;;;;;;28.27;11.68;;;;;;;1.05;90.99;99759.44;5110376;28;20082;-50
2023/01/19 03:08:58;;;;;;;31.13;12.27;;;;;;;0.92;92.37;99759.53;5109614;28;20048;-50
2023/01/19 03:11:32;;;;;;;29.10;11.88;;;;;;;0.95;91.74;99767.97;5110319;28;20054;-51
2023/01/19 03:14:07;;;;;;;26.30;10.52;;;;;;;0.90;91.94;99766.66;5110380;28;20040;-50
2023/01/19 03:19:18;;;;;;;27.38;11.63;;;;;;;0.78;92.92;99760.56;5110960;27;20129;-52
2023/01/19 03:21:49;;;;;;;30.50;10.98;;;;;;;0.83;92.34;99760.25;5111477;28;20079;-50
2023/01/19 03:24:18;;;;;;;23.23;10.50;;;;;;;0.90;92.55;99770.09;5110899;28;20439;-49
2023/01/19 03:26:56;;;;;;;25.55;9.98;;;;;;;0.91;92.50;99761.34;5111311;28;20043;-51
2023/01/19 03:29:29;;;;;;;32.67;11.57;;;;;;;0.94;92.51;99763.69;5110968;28;20531;-48
2023/01/19 03:32:00;;;;;;;30.67;10.57;;;;;;;0.95;91.82;99767.16;5111060;28;20501;-49
2023/01/19 03:34:28;;;;;;;31.65;10.48;;;;;;;0.91;91.52;99765.69;5111002;28;20489;-49
2023/01/19 03:36:59;;;;;;;28.58;10.25;;;;;;;0.97;91.85;99759.22;5110832;28;20054;-49
2023/01/19 03:39:26;;;;;;;23.50;9.70;;;;;;;1.14;91.35;99751.72;5111107;28;20047;-50
2023/01/19 03:41:57;;;;;;;26.55;10.52;;;;;;;1.17;91.27;99765.53;5110547;28;20219;-51
2023/01/19 03:44:28;;;;;;;22.95;7.78;;;;;;;1.13;90.79;99764.94;5111001;28;20043;-51
2023/01/19 03:46:57;;;;;;;20.00;9.13;;;;;;;1.16;90.68;99764.66;5110291;28;20069;-50
2023/01/19 03:49:24;;;;;;;22.95;9.18;;;;;;;1.28;90.25;99770.75;5110660;28;20105;-50
2023/01/19 03:51:55;;;;;;;23.25;9.40;;;;;;;1.29;90.58;99780.22;5110600;28;20043;-49
2023/01/19 03:54:22;;;;;;;20.77;8.82;;;;;;;1.31;89.88;99779.19;5110633;28;20043;-50
2023/01/19 03:56:49;;;;;;;24.17;8.90;;;;;;;1.47;89.60;99784.03;5110471;28;20342;-49
2023/01/19 03:59:16;;;;;;;26.20;9.15;;;;;;;1.38;89.65;99784.75;5110449;28;20040;-49
2023/01/19 04:01:43;;;;;;;24.98;8.80;;;;;;;1.41;90.64;99784.53;5110442;28;20071;-50
2023/01/19 04:04:10;;;;;;;24.70;8.80;;;;;;;1.38;91.60;99784.75;5110394;28;20048;-49
2023/01/19 04:06:37;;;;;;;21.35;9.05;;;;;;;1.32;92.77;99788.66;5109714;28;20473;-49
2023/01/19 04:09:04;;;;;;;20.30;8.07;;;;;;;1.20;93.85;99775.72;5109527;28;20051;-49
2023/01/19 04:11:31;;;;;;;21.75;8.93;;;;;;;1.15;94.84;99784.75;5110517;28;20097;-50
2023/01/19 04:13:57;;;;;;;25.20;9.80;;;;;;;1.24;95.22;99785.84;5110346;28;20126;-50
2023/01/19 04:16:24;;;;;;;21.08;9.27;;;;;;;1.22;95.95;99774.66;5109819;28;20056;-49
2023/01/19 04:18:51;;;;;;;18.83;8.10;;;;;;;1.11;95.86;99775.50;5109932;28;20044;-50
2023/01/19 04:21:19;;;;;;;20.83;10.00;;;;;;;1.17;96.62;99770.75;5109919;28;20173;-48
2023/01/19 04:23:48;;;;;;;18.30;8.75;;;;;;;1.20;97.12;99775.72;5110085;28;20040;-49
2023/01/19 04:26:15;;;;;;;20.40;9.07;;;;;;;1.27;96.93;99777.72;5110033;28;20044;-51
2023/01/19 04:28:42;;;;;;;17.00;7.90;;;;;;;1.20;97.05;99779.19;5106604;28;20081;-48
2023/01/19 04:31:09;;;;;;;20.90;8.68;;;;;;;1.17;97.44;99774.19;5089801;28;20031;-49
2023/01/19 04:33:36;;;;;;;26.13;9.50;;;;;;;1.07;98.40;99774.03;5094914;28;20071;-49
2023/01/19 04:36:02;;;;;;;22.00;9.02;;;;;;;1.03;98.93;99777.84;5096135;28;20397;-48
2023/01/19 04:38:29;;;;;;;16.45;8.07;;;;;;;1.15;99.02;99776.91;5095909;28;20397;-50
2023/01/19 04:40:56;;;;;;;18.45;8.30;;;;;;;1.00;98.83;99772.88;5096148;28;20102;-50
2023/01/19 04:43:23;;;;;;;21.20;8.68;;;;;;;1.13;99.15;99781.44;5096000;28;20557;-49
2023/01/19 04:45:50;;;;;;;21.35;8.73;;;;;;;1.05;99.57;99786.38;5096075;28;20093;-49
2023/01/19 04:48:18;;;;;;;20.10;8.70;;;;;;;1.07;100.00;99773.22;5096302;28;20097;-49
2023/01/19 04:50:46;;;;;;;25.67;9.05;;;;;;;1.09;100.00;99780.00;5095362;28;20090;-49
2023/01/19 04:53:15;;;;;;;18.98;8.90;;;;;;;1.27;99.37;99776.91;5095870;28;20036;-49
2023/01/19 04:55:41;;;;;;;20.55;8.85;;;;;;;1.11;99.79;99785.94;5094689;28;20056;-49
2023/01/19 04:58:08;;;;;;;26.63;9.00;;;;;;;1.13;100.00;99778.81;5095986;28;20043;-49
2023/01/19 05:00:35;;;;;;;19.75;8.27;;;;;;;1.03;100.00;99770.00;5095561;28;20048;-50
2023/01/19 05:03:03;;;;;;;20.10;9.20;;;;;;;0.93;100.00;99769.88;5095632;28;20076;-49
2023/01/19 05:05:31;;;;;;;20.33;8.07;;;;;;;0.94;100.00;99773.31;5095522;28;20051;-50
2023/01/19 05:07:59;;;;;;;30.40;9.45;;;;;;;0.75;100.00;99773.88;5094972;28;20048;-49
2023/01/19 05:10:27;;;;;;;27.50;9.95;;;;;;;0.69;100.00;99783.00;5095537;28;20044;-49
2023/01/19 05:12:54;;;;;;;19.65;8.23;;;;;;;0.63;100.00;99782.63;5095476;28;20048;-49
2023/01/19 05:15:20;;;;;;;27.33;10.70;;;;;;;0.60;100.00;99790.66;5095490;28;20040;-49
2023/01/19 05:17:47;;;;;;;22.75;9.60;;;;;;;0.45;100.00;99769.97;5094963;28;20095;-49
2023/01/19 05:20:14;;;;;;;24.42;10.23;;;;;;;0.53;100.00;99782.47;5095351;28;20048;-49
2023/01/19 05:22:47;;;;;;;17.73;8.43;;;;;;;0.33;100.00;99778.72;5095332;28;20044;-49
2023/01/19 05:25:14;;;;;;;26.45;11.45;;;;;;;0.36;100.00;99774.09;5095335;28;20048;-49
2023/01/19 05:27:40;;;;;;;27.20;11.00;;;;;;;0.28;100.00;99779.03;5095261;28;20440;-49
2023/01/19 05:30:08;;;;;;;26.75;11.90;;;;;;;0.27;100.00;99773.91;5094552;28;20043;-49
2023/01/19 05:32:35;;;;;;;31.77;11.90;;;;;;;0.25;100.00;99774.03;5094512;28;20075;-54
2023/01/19 05:35:01;;;;;;;33.90;12.13;;;;;;;0.20;100.00;99781.38;5094469;28;20045;-51
2023/01/19 05:37:28;;;;;;;27.63;10.98;;;;;;;0.09;100.00;99779.53;5094796;28;20044;-50
2023/01/19 05:39:55;;;;;;;29.48;12.07;;;;;;;0.01;100.00;99779.25;5094688;28;20075;-51
2023/01/19 05:42:21;;;;;;;29.83;13.35;;;;;;;0.08;100.00;99774.44;5093767;28;20094;-49
2023/01/19 05:44:48;;;;;;;30.40;13.30;;;;;;;0.11;100.00;99776.81;5094582;28;20058;-50
2023/01/19 05:47:15;;;;;;;29.75;12.90;;;;;;;0.21;100.00;99774.38;5094297;28;20051;-50
2023/01/19 05:49:42;;;;;;;27.08;13.10;;;;;;;0.21;100.00;99777.81;5094193;28;20042;-51
2023/01/19 05:52:08;;;;;;;32.72;14.07;;;;;;;0.23;100.00;99783.75;5094361;28;20048;-50
2023/01/19 05:54:35;;;;;;;32.67;13.50;;;;;;;0.24;100.00;99792.41;5094624;28;20051;-50
2023/01/19 05:57:03;;;;;;;29.48;13.00;;;;;;;0.21;100.00;99792.63;5094153;28;20119;-50
2023/01/19 05:59:30;;;;;;;32.28;14.20;;;;;;;0.18;100.00;99788.47;5094437;28;20398;-49
2023/01/19 06:01:58;;;;;;;30.17;13.95;;;;;;;0.24;100.00;99795.88;5093995;28;20068;-51
2023/01/19 06:04:25;;;;;;;22.38;9.40;;;;;;;0.08;100.00;99801.34;5093881;28;20421;-52
2023/01/19 06:06:53;;;;;;;29.27;12.77;;;;;;;0.16;100.00;99806.00;5094123;28;20075;-49
2023/01/19 06:09:20;;;;;;;31.85;11.98;;;;;;;0.12;100.00;99801.94;5093684;28;20117;-50
2023/01/19 06:11:47;;;;;;;27.45;12.52;;;;;;;0.18;100.00;99810.19;5094459;28;20123;-50
2023/01/19 06:14:15;;;;;;;25.90;11.63;;;;;;;0.21;100.00;99805.69;5094223;28;20044;-51
2023/01/19 06:16:41;;;;;;;34.92;13.43;;;;;;;0.10;100.00;99812.50;5093882;28;20562;-50
2023/01/19 06:19:08;;;;;;;26.48;11.80;;;;;;;0.13;100.00;99816.66;5093853;28;20051;-51
2023/01/19 06:21:35;;;;;;;19.35;9.57;;;;;;;0.26;100.00;99814.84;5094194;28;20086;-50
2023/01/19 06:24:02;;;;;;;29.55;12.65;;;;;;;0.04;100.00;99818.16;5094091;28;20048;-51
2023/01/19 06:26:29;;;;;;;29.77;11.80;;;;;;;0.07;100.00;99811.88;5093927;28;20078;-51
2023/01/19 06:28:55;;;;;;;24.17;10.77;;;;;;;-0.02;100.00;99811.59;5093920;28;20502;-49
2023/01/19 06:31:22;;;;;;;25.67;10.77;;;;;;;0.07;100.00;99810.09;5086133;28;20147;-51
2023/01/19 06:33:49;;;;;;;28.75;11.93;;;;;;;0.15;100.00;99814.78;5072382;28;20494;-51
2023/01/19 06:36:15;;;;;;;22.92;10.27;;;;;;;0.17;100.00;99807.69;5076032;28;20051;-50
2023/01/19 06:38:43;;;;;;;18.30;8.65;;;;;;;0.21;100.00;99816.94;5093551;28;20040;-52
2023/01/19 06:41:09;;;;;;;24.40;11.60;;;;;;;0.29;100.00;99813.78;5093622;28;20074;-49
2023/01/19 06:43:36;;;;;;;24.52;11.05;;;;;;;0.23;100.00;99828.09;5093472;28;20150;-50
2023/01/19 06:46:03;;;;;;;27.25;12.40;;;;;;;0.27;100.00;99841.75;5093267;28;20466;-50
2023/01/19 06:48:30;;;;;;;29.23;12.75;;;;;;;0.25;100.00;99839.25;5093170;28;20437;-51
2023/01/19 06:50:57;;;;;;;30.17;11.98;;;;;;;0.28;100.00;99826.00;5092888;28;20131;-51
2023/01/19 06:53:27;;;;;;;27.75;12.48;;;;;;;0.46;100.00;99843.88;5093102;28;20074;-52
2023/01/19 06:55:58;;;;;;;26.70;12.35;;;;;;;0.43;100.00;99857.16;5093261;28;20071;-51
2023/01/19 06:58:25;;;;;;;28.38;12.68;;;;;;;0.31;100.00;99854.47;5093663;28;20130;-50
2023/01/19 07:00:52;;;;;;;27.30;11.88;;;;;;;0.34;100.00;99856.84;5093069;28;20070;-50
2023/01/19 07:03:21;;;;;;;31.00;12.95;;;;;;;0.35;100.00;99857.72;5093158;28;20071;-51
2023/01/19 07:05:52;;;;;;;31.00;13.23;;;;;;;0.38;100.00;99867.91;5090673;28;20097;-51
2023/01/19 07:08:18;;;;;;;30.52;13.57;;;;;;;0.35;100.00;99865.53;5089775;28;20477;-50
2023/01/19 07:10:46;;;;;;;29.23;12.90;;;;;;;0.44;100.00;99864.88;5074368;28;20045;-51
2023/01/19 07:13:12;;;;;;;29.13;12.27;;;;;;;0.27;100.00;99860.00;5072570;28;20062;-50
2023/01/19 07:15:39;;;;;;;31.42;12.32;;;;;;;0.24;100.00;99873.25;5072786;28;20105;-52
2023/01/19 07:18:06;;;;;;;35.13;13.02;;;;;;;0.27;100.00;99876.50;5072167;28;20051;-51
2023/01/19 07:20:35;;;;;;;31.80;13.13;;;;;;;0.33;100.00;99881.28;5042633;28;20119;-52
2023/01/19 07:23:02;;;;;;;32.75;14.40;;;;;;;0.48;100.00;99878.53;5087909;28;20040;-51
2023/01/19 07:25:29;;;;;;;34.08;13.45;;;;;;;0.48;100.00;99889.78;5077309;28;20032;-51
2023/01/19 07:27:58;;;;;;;24.92;9.80;;;;;;;0.63;100.00;99893.06;5089260;28;20127;-51
2023/01/19 07:30:25;;;;;;;28.90;12.15;;;;;;;0.48;100.00;99884.56;5082880;28;20041;-49
2023/01/19 07:32:56;;;;;;;36.95;15.55;;;;;;;0.43;100.00;99889.28;5092941;28;20087;-52
2023/01/19 07:35:24;;;;;;;35.50;14.32;;;;;;;0.38;100.00;99884.41;5072074;28;20529;-49
2023/01/19 07:37:51;;;;;;;38.05;14.55;;;;;;;0.46;100.00;99893.47;5065583;28;20044;-50
2023/01/19 07:40:17;;;;;;;30.85;12.80;;;;;;;0.57;100.00;99893.53;5083327;28;20144;-49
2023/01/19 07:42:46;;;;;;;34.67;15.52;;;;;;;0.67;100.00;99896.28;5064803;28;20070;-51
2023/01/19 07:45:14;;;;;;;30.00;11.68;;;;;;;0.49;100.00;99899.31;5081696;28;20086;-51
2023/01/19 07:47:43;;;;;;;36.13;14.88;;;;;;;0.53;100.00;99903.34;5056791;28;20051;-52
2023/01/19 07:50:12;;;;;;;33.70;14.88;;;;;;;0.62;100.00;99894.03;5085090;28;20041;-50
2023/01/19 07:52:39;;;;;;;39.50;15.57;;;;;;;0.54;100.00;99910.22;5049646;28;20101;-51
2023/01/19 07:55:06;;;;;;;37.67;16.05;;;;;;;0.62;100.00;99911.44;5059874;28;20052;-51
2023/01/19 07:57:34;;;;;;;43.65;16.08;;;;;;;0.63;100.00;99918.34;5055946;28;20045;-50
2023/01/19 08:00:02;;;;;;;35.47;13.23;;;;;;;0.66;100.00;99924.19;5084794;28;20109;-50
2023/01/19 08:02:50;;;;;;;27.15;11.93;;;;;;;0.64;100.00;99927.84;5038605;28;20197;-49
2023/01/19 08:05:18;;;;;;;26.70;11.90;;;;;;;0.60;100.00;99939.44;5061451;28;20056;-49
2023/01/19 08:07:45;;;;;;;28.45;13.18;;;;;;;0.62;100.00;99945.38;5049252;28;20131;-51
2023/01/19 08:10:13;;;;;;;35.83;15.48;;;;;;;0.61;100.00;99957.59;5053536;28;20055;-51
2023/01/19 08:12:41;;;;;;;37.45;15.82;;;;;;;0.67;100.00;99958.94;5027781;28;20040;-51
2023/01/19 08:15:09;;;;;;;37.13;15.85;;;;;;;0.61;100.00;99947.16;5054257;28;20555;-50
2023/01/19 08:17:36;;;;;;;37.75;16.15;;;;;;;0.73;100.00;99951.53;5046903;28;20086;-50
2023/01/19 08:20:03;;;;;;;38.30;15.93;;;;;;;0.79;100.00;99954.63;5064088;28;20517;-51
2023/01/19 08:22:30;;;;;;;33.85;14.02;;;;;;;0.70;100.00;99964.78;5033187;28;20040;-52
2023/01/19 08:24:56;;;;;;;29.70;13.90;;;;;;;0.69;100.00;99957.91;5061821;28;20041;-50
2023/01/19 08:27:23;;;;;;;30.58;12.27;;;;;;;0.66;100.00;99962.53;5042015;28;20110;-51
2023/01/19 08:29:50;;;;;;;29.15;13.13;;;;;;;0.65;100.00;99968.66;5057314;28;20079;-52
2023/01/19 08:32:17;;;;;;;38.70;15.23;;;;;;;0.63;100.00;99968.78;5051262;28;20048;-50
2023/01/19 08:34:44;;;;;;;31.50;14.63;;;;;;;0.67;100.00;99977.22;5051680;28;20130;-51
2023/01/19 08:37:11;;;;;;;34.95;15.23;;;;;;;0.69;100.00;99972.72;5027673;28;20052;-51
2023/01/19 08:39:38;;;;;;;34.90;15.43;;;;;;;0.73;100.00;99982.03;5054640;28;20114;-51
2023/01/19 08:42:04;;;;;;;30.90;13.70;;;;;;;0.65;100.00;99987.75;5034314;28;20032;-50
2023/01/19 08:44:31;;;;;;;33.20;15.50;;;;;;;0.65;100.00;99997.38;5057164;28;20041;-52
2023/01/19 08:46:58;;;;;;;40.47;15.38;;;;;;;0.81;100.00;99995.34;5049270;28;20099;-51
2023/01/19 08:49:25;;;;;;;35.72;15.88;;;;;;;0.72;100.00;99996.00;5054678;28;20044;-51
2023/01/19 08:51:52;;;;;;;39.72;16.33;;;;;;;0.74;100.00;99994.94;5038864;28;20124;-51
2023/01/19 08:54:20;;;;;;;34.92;14.68;;;;;;;0.79;100.00;99994.63;5069005;28;20048;-50
2023/01/19 08:56:47;;;;;;;37.08;15.20;;;;;;;0.84;100.00;99999.53;5034480;28;20065;-50
2023/01/19 08:59:13;;;;;;;41.67;16.85;;;;;;;0.79;100.00;100002.47;5044755;28;20044;-52
2023/01/19 09:01:40;;;;;;;31.77;13.23;;;;;;;0.81;100.00;100003.19;5035692;28;20083;-51
2023/01/19 09:04:07;;;;;;;37.97;16.38;;;;;;;0.87;100.00;100013.19;5041386;28;20057;-50
2023/01/19 09:06:33;;;;;;;40.50;18.17;;;;;;;0.97;100.00;100013.38;5053775;28;20048;-52
2023/01/19 09:09:00;;;;;;;42.10;18.38;;;;;;;0.99;100.00;100015.88;5056645;28;20466;-49
2023/01/19 09:11:28;;;;;;;25.98;11.80;;;;;;;0.97;100.00;100021.22;5034156;28;20036;-50
2023/01/19 09:13:55;;;;;;;40.33;17.80;;;;;;;1.10;100.00;100021.16;5044436;28;20144;-51
2023/01/19 09:16:22;;;;;;;39.83;17.60;;;;;;;1.10;100.00;100019.38;5024078;28;20045;-53
2023/01/19 09:18:49;;;;;;;43.08;18.33;;;;;;;1.07;100.00;100018.75;5038102;28;20037;-50
2023/01/19 09:21:17;;;;;;;41.42;18.15;;;;;;;1.01;100.00;100029.66;5023727;28;20045;-52
2023/01/19 09:23:44;;;;;;;45.03;18.88;;;;;;;1.03;100.00;100031.19;5045743;28;20510;-51
2023/01/19 09:26:10;;;;;;;49.47;17.38;;;;;;;1.12;100.00;100029.72;5039401;28;20137;-52
2023/01/19 09:28:37;;;;;;;41.88;17.50;;;;;;;1.13;100.00;100032.22;5020341;28;20055;-50
2023/01/19 09:31:06;;;;;;;45.55;19.60;;;;;;;1.14;100.00;100025.22;5040223;28;20119;-50
2023/01/19 09:33:34;;;;;;;45.40;17.98;;;;;;;1.28;100.00;100032.06;5019511;28;20522;-51
2023/01/19 09:36:01;;;;;;;38.38;15.30;;;;;;;1.07;100.00;100039.66;5043986;28;20080;-51
2023/01/19 09:38:31;;;;;;;46.13;18.73;;;;;;;1.24;100.00;100043.69;5023224;28;20069;-51
2023/01/19 09:40:59;;;;;;;50.63;17.90;;;;;;;1.19;100.00;100045.78;5037890;28;20045;-51
2023/01/19 09:43:47;;;;;;;51.85;19.58;;;;;;;1.26;100.00;100044.41;5025303;28;20124;-52
2023/01/19 09:46:21;;;;;;;46.65;19.75;;;;;;;1.20;100.00;100057.91;5040402;28;20495;-51
2023/01/19 09:48:53;;;;;;;46.33;19.70;;;;;;;1.19;100.00;100061.47;5029714;28;20060;-51
2023/01/19 09:51:24;;;;;;;44.20;19.30;;;;;;;1.25;100.00;100068.84;5044286;28;20063;-50
2023/01/19 09:54:14;;;;;;;33.53;14.48;;;;;;;1.13;100.00;100079.25;5031987;28;20045;-51
2023/01/19 09:56:44;;;;;;;46.70;18.73;;;;;;;1.10;100.00;100074.22;5023663;28;20103;-51
2023/01/19 09:59:32;;;;;;;52.50;20.23;;;;;;;1.21;100.00;100089.16;5024522;28;20502;-53
2023/01/19 10:02:38;;;;;;;48.75;20.33;;;;;;;1.19;100.00;100091.03;5038182;28;20041;-51
2023/01/19 10:05:30;;;;;;;51.20;20.00;;;;;;;1.14;100.00;100093.97;5043671;28;20041;-52
2023/01/19 10:08:26;;;;;;;51.90;19.20;;;;;;;1.06;100.00;100088.47;5022085;28;20048;-52
2023/01/19 10:10:55;;;;;;;53.55;19.58;;;;;;;1.07;100.00;100095.34;5033141;28;20041;-52
2023/01/19 10:13:36;;;;;;;39.88;16.35;;;;;;;1.27;100.00;100103.53;5029442;28;20395;-50
2023/01/19 10:16:30;;;;;;;43.55;17.70;;;;;;;1.20;100.00;100105.78;5040787;28;20040;-52
2023/01/19 10:19:11;;;;;;;46.28;17.90;;;;;;;1.18;100.00;100102.41;5032663;28;20057;-50
2023/01/19 10:21:42;;;;;;;53.63;19.60;;;;;;;1.17;100.00;100100.78;5051697;28;20048;-52
2023/01/19 10:24:23;;;;;;;53.55;20.23;;;;;;;1.20;100.00;100097.94;5023399;28;20100;-51
2023/01/19 10:26:52;;;;;;;48.17;20.58;;;;;;;1.25;100.00;100102.81;5002912;28;20827;-50
2023/01/19 10:29:27;;;;;;;52.67;20.67;;;;;;;1.23;100.00;100112.56;5027137;28;20049;-52
2023/01/19 10:32:05;;;;;;;56.35;21.88;;;;;;;1.28;100.00;100111.28;5049492;28;20048;-52
2023/01/19 10:34:32;;;;;;;60.72;20.95;;;;;;;1.24;100.00;100114.25;5012373;28;20120;-52
2023/01/19 10:37:04;;;;;;;49.28;17.42;;;;;;;1.30;100.00;100119.00;5035997;28;20449;-51
2023/01/19 10:39:31;;;;;;;55.42;20.88;;;;;;;1.21;100.00;100122.28;5027337;28;20041;-52
2023/01/19 10:42:02;;;;;;;51.95;19.50;;;;;;;1.32;100.00;100117.13;5052359;28;20037;-51
2023/01/19 10:44:35;;;;;;;55.70;19.73;;;;;;;1.29;100.00;100122.56;5028780;28;20041;-51
2023/01/19 10:47:10;;;;;;;55.17;18.63;;;;;;;1.27;100.00;100120.06;5034466;28;20067;-49
2023/01/19 10:49:41;;;;;;;51.30;20.63;;;;;;;1.21;100.00;100117.88;5021900;28;20116;-51
2023/01/19 10:52:24;;;;;;;57.88;21.63;;;;;;;1.34;100.00;100113.44;5047019;28;20045;-52
2023/01/19 10:54:50;;;;;;;56.47;19.50;;;;;;;1.50;100.00;100109.75;5028569;28;20041;-51
2023/01/19 10:57:29;;;;;;;60.92;22.45;;;;;;;1.57;100.00;100121.44;5027807;28;20064;-51
2023/01/19 10:59:56;;;;;;;66.47;21.52;;;;;;;1.67;100.00;100114.59;5019922;28;20176;-50
2023/01/19 11:02:27;;;;;;;52.03;20.05;;;;;;;1.71;100.00;100112.56;5024633;28;20052;-50
2023/01/19 11:04:58;;;;;;;52.20;20.92;;;;;;;1.81;100.00;100112.72;5005239;28;20569;-52
2023/01/19 11:10:19;;;;;;;63.45;22.25;;;;;;;2.13;100.00;100114.72;5055361;27;20400;-53
2023/01/19 11:13:11;;;;;;;49.97;20.50;;;;;;;1.85;100.00;100114.16;5097396;28;20071;-50
2023/01/19 11:15:43;;;;;;;54.10;20.15;;;;;;;1.81;100.00;100118.78;5053809;28;20052;-52
2023/01/19 11:18:21;;;;;;;;;;;;;;;1.71;100.00;100116.03;5099550;28;20110;-50
2023/01/19 11:20:51;;;;;;;48.15;18.20;;;;;;;1.65;100.00;100121.69;5064562;28;19934;-52
2023/01/19 11:23:30;;;;;;;52.03;18.98;;;;;;;1.63;100.00;100122.75;5090215;28;20047;-52
2023/01/19 11:26:00;;;;;;;54.05;20.10;;;;;;;1.84;100.00;100117.75;5087312;28;20054;-50
2023/01/19 11:28:30;;;;;;;53.42;20.20;;;;;;;1.86;100.00;100126.31;5103128;28;20036;-52
2023/01/19 11:31:15;;;;;;;48.97;19.42;;;;;;;1.79;100.00;100127.72;5057465;28;20047;-51
2023/01/19 11:36:25;;;;;;;40.05;16.13;;;;;;;1.84;100.00;100125.59;5052295;27;20416;-52
2023/01/19 11:38:54;;;;;;;52.33;19.75;;;;;;;1.82;100.00;100123.09;5085826;28;20044;-52
2023/01/19 11:41:30;;;;;;;57.10;20.17;;;;;;;1.87;100.00;100120.97;5077410;28;20118;-52
2023/01/19 11:44:10;;;;;;;47.72;18.80;;;;;;;1.97;100.00;100128.97;5099278;28;20122;-52
2023/01/19 11:46:43;;;;;;;54.95;20.48;;;;;;;2.07;100.00;100124.72;5059963;28;20039;-53
2023/01/19 11:49:20;;;;;;;51.58;19.67;;;;;;;2.03;100.00;100119.81;5083211;28;20093;-51
2023/01/19 11:51:57;;;;;;;48.95;18.33;;;;;;;2.14;100.00;100125.09;5070820;28;20044;-51